createdAt,value
2023-05-18T00:00:49.381Z,90.16
2023-05-18T00:03:21.065Z,89.25
2023-05-18T00:05:49.433Z,89.82
2023-05-18T00:08:16.629Z,90.82
2023-05-18T00:10:44.171Z,90.61
2023-05-18T00:13:11.490Z,89.40
2023-05-18T00:15:39.149Z,89.47
2023-05-18T00:18:07.041Z,89.18
2023-05-18T00:20:34.865Z,90.48
2023-05-18T00:23:02.605Z,90.23
2023-05-18T00:25:30.331Z,92.66
2023-05-18T00:27:57.750Z,91.31
2023-05-18T00:30:31.013Z,90.84
2023-05-18T00:32:58.333Z,91.06
2023-05-18T00:35:26.151Z,91.76
2023-05-18T00:37:53.590Z,93.45
2023-05-18T00:40:22.522Z,93.61
2023-05-18T00:42:51.803Z,94.21
2023-05-18T00:45:19.502Z,94.61
2023-05-18T00:47:47.460Z,94.29
2023-05-18T00:50:15.330Z,95.13
2023-05-18T00:52:43.925Z,94.74
2023-05-18T00:55:12.685Z,94.68
2023-05-18T00:57:44.635Z,94.09
2023-05-18T01:00:14.072Z,94.29
2023-05-18T01:02:45.545Z,94.79
2023-05-18T01:05:13.448Z,94.46
2023-05-18T01:07:44.690Z,95.81
2023-05-18T01:10:15.366Z,95.75
2023-05-18T01:12:53.678Z,96.61
2023-05-18T01:15:54.524Z,96.09
2023-05-18T01:18:31.828Z,94.55
2023-05-18T01:21:11.269Z,93.60
2023-05-18T01:23:56.799Z,93.48
2023-05-18T01:26:30.263Z,92.87
2023-05-18T01:29:01.549Z,92.56
2023-05-18T01:31:29.490Z,92.81
2023-05-18T01:33:56.892Z,92.90
2023-05-18T01:36:24.469Z,93.10
2023-05-18T01:38:55.272Z,91.91
2023-05-18T01:41:25.098Z,91.71
2023-05-18T01:44:12.543Z,92.78
2023-05-18T01:47:01.825Z,92.97
2023-05-18T01:49:38.191Z,93.27
2023-05-18T01:52:21.369Z,93.49
2023-05-18T01:54:52.430Z,97.28
2023-05-18T01:57:23.918Z,96.77
2023-05-18T01:59:52.164Z,96.90
2023-05-18T02:02:19.871Z,97.35
2023-05-18T02:04:47.458Z,97.27
2023-05-18T02:07:15.001Z,97.02
2023-05-18T02:09:44.385Z,96.86
2023-05-18T02:12:12.214Z,97.70
2023-05-18T02:14:39.527Z,97.14
2023-05-18T02:17:07.306Z,96.78
2023-05-18T02:19:38.448Z,97.17
2023-05-18T02:22:07.160Z,96.00
2023-05-18T02:24:35.030Z,95.67
2023-05-18T02:27:05.627Z,96.38
2023-05-18T02:29:32.909Z,96.17
2023-05-18T02:32:00.614Z,96.31
2023-05-18T02:34:32.114Z,96.59
2023-05-18T02:37:03.761Z,96.74
2023-05-18T02:39:31.320Z,97.47
2023-05-18T02:41:58.891Z,97.80
2023-05-18T02:44:26.228Z,97.68
2023-05-18T02:46:53.804Z,97.34
2023-05-18T02:49:21.146Z,97.27
2023-05-18T02:51:48.776Z,97.53
2023-05-18T02:54:16.089Z,96.07
2023-05-18T02:56:44.562Z,95.63
2023-05-18T02:59:28.183Z,95.61
2023-05-18T03:01:55.981Z,94.83
2023-05-18T03:04:26.284Z,95.12
2023-05-18T03:06:57.434Z,96.26
2023-05-18T03:09:25.794Z,93.51
2023-05-18T03:11:55.009Z,93.97
2023-05-18T03:14:22.311Z,94.04
2023-05-18T03:16:54.397Z,94.02
2023-05-18T03:19:24.073Z,94.09
2023-05-18T03:21:51.953Z,94.23
2023-05-18T03:24:20.449Z,93.87
2023-05-18T03:26:49.992Z,91.87
2023-05-18T03:29:17.421Z,90.68
2023-05-18T03:31:45.314Z,91.30
2023-05-18T03:34:13.691Z,90.64
2023-05-18T03:36:42.585Z,89.54
2023-05-18T03:39:10.618Z,87.99
2023-05-18T03:41:38.639Z,85.57
2023-05-18T03:44:06.208Z,83.33
2023-05-18T03:46:34.068Z,81.93
2023-05-18T03:49:03.391Z,81.70
2023-05-18T03:51:37.037Z,79.29
2023-05-18T03:54:04.794Z,78.36
2023-05-18T03:56:32.513Z,77.41
2023-05-18T03:59:00.241Z,76.90
2023-05-18T04:01:30.404Z,75.80
2023-05-18T04:03:58.254Z,75.85
2023-05-18T04:06:26.911Z,71.08
2023-05-18T04:08:54.992Z,69.60
2023-05-18T04:11:22.722Z,66.80
2023-05-18T04:13:50.953Z,65.77
2023-05-18T04:16:19.703Z,65.76
2023-05-18T04:18:47.196Z,61.10
2023-05-18T04:21:16.176Z,60.53
2023-05-18T04:23:45.923Z,59.97
2023-05-18T04:26:20.014Z,57.33
2023-05-18T04:28:47.536Z,57.97
2023-05-18T04:31:15.103Z,56.52
2023-05-18T04:33:42.564Z,54.21
2023-05-18T04:36:10.378Z,53.64
2023-05-18T04:38:38.480Z,53.14
2023-05-18T04:41:07.859Z,51.02
2023-05-18T04:43:36.698Z,52.09
2023-05-18T04:46:04.456Z,51.02
2023-05-18T04:48:33.570Z,51.27
2023-05-18T04:51:04.945Z,53.11
2023-05-18T04:53:33.699Z,50.29
2023-05-18T04:56:02.052Z,49.02
2023-05-18T04:58:30.683Z,48.65
2023-05-18T05:00:58.580Z,47.48
2023-05-18T05:03:26.220Z,46.17
2023-05-18T05:05:53.930Z,45.69
2023-05-18T05:08:21.270Z,42.93
2023-05-18T05:10:48.768Z,42.13
2023-05-18T05:13:16.064Z,41.56
2023-05-18T05:15:43.617Z,37.88
2023-05-18T05:18:10.938Z,34.65
2023-05-18T05:20:38.634Z,29.75
2023-05-18T05:23:06.028Z,26.60
2023-05-18T05:25:33.764Z,23.91
2023-05-18T05:28:01.631Z,23.28
2023-05-18T05:30:30.005Z,21.72
2023-05-18T05:32:57.666Z,20.72
2023-05-18T05:35:26.046Z,21.58
2023-05-18T05:37:53.498Z,20.18
2023-05-18T05:40:21.822Z,17.56
2023-05-18T05:42:50.494Z,16.42
2023-05-18T05:45:18.323Z,16.08
2023-05-18T05:47:51.139Z,15.85
2023-05-18T05:50:20.701Z,16.71
2023-05-18T05:52:49.992Z,16.96
2023-05-18T05:55:18.399Z,15.38
2023-05-18T05:57:46.023Z,17.41
2023-05-18T06:00:14.074Z,14.44
2023-05-18T06:02:58.979Z,15.23
2023-05-18T06:05:38.128Z,14.80
2023-05-18T06:08:09.366Z,15.05
2023-05-18T06:10:39.338Z,17.52
2023-05-18T06:13:07.523Z,14.22
2023-05-18T06:15:42.258Z,14.22
2023-05-18T06:18:11.493Z,13.17
2023-05-18T06:20:40.505Z,13.14
2023-05-18T06:23:07.818Z,14.08
2023-05-18T06:25:53.835Z,13.86
2023-05-18T06:28:34.702Z,15.62
2023-05-18T06:31:22.676Z,15.48
2023-05-18T06:33:53.241Z,14.29
2023-05-18T06:36:21.113Z,14.79
2023-05-18T06:38:48.564Z,15.21
2023-05-18T06:41:16.208Z,13.21
2023-05-18T06:43:43.561Z,14.91
2023-05-18T06:46:23.588Z,16.14
2023-05-18T06:48:57.870Z,13.89
2023-05-18T06:51:25.764Z,13.93
2023-05-18T06:53:54.991Z,14.13
2023-05-18T06:56:23.627Z,12.43
2023-05-18T06:58:52.304Z,11.82
2023-05-18T07:01:19.887Z,12.28
2023-05-18T07:03:47.472Z,10.89
2023-05-18T07:06:15.149Z,11.55
2023-05-18T07:08:42.530Z,13.97
2023-05-18T07:11:10.112Z,13.50
2023-05-18T07:13:37.363Z,13.29
2023-05-18T07:16:05.255Z,15.06
2023-05-18T07:18:34.100Z,16.03
2023-05-18T07:21:01.663Z,13.71
2023-05-18T07:23:29.084Z,15.12
2023-05-18T07:25:57.797Z,14.65
2023-05-18T07:28:25.186Z,13.48
2023-05-18T07:30:52.765Z,12.88
2023-05-18T07:33:20.146Z,12.57
2023-05-18T07:35:47.747Z,13.58
2023-05-18T07:38:15.130Z,17.52
2023-05-18T07:40:42.670Z,17.43
2023-05-18T07:43:10.500Z,17.52
2023-05-18T07:45:38.096Z,18.99
2023-05-18T07:48:05.696Z,18.81
2023-05-18T07:50:34.804Z,18.09
2023-05-18T07:53:02.050Z,16.51
2023-05-18T07:55:29.920Z,16.87
2023-05-18T07:57:57.421Z,17.47
2023-05-18T08:00:25.128Z,19.45
2023-05-18T08:02:53.094Z,19.12
2023-05-18T08:05:22.569Z,18.57
2023-05-18T08:07:49.930Z,18.04
2023-05-18T08:10:17.619Z,19.37
2023-05-18T08:12:44.878Z,18.26
2023-05-18T08:15:12.479Z,16.65
2023-05-18T08:17:40.030Z,16.50
2023-05-18T08:20:08.910Z,17.20
2023-05-18T08:22:36.443Z,16.91
2023-05-18T08:25:04.315Z,20.30
2023-05-18T08:27:31.892Z,19.20
2023-05-18T08:29:59.454Z,18.80
2023-05-18T08:32:26.905Z,20.40
2023-05-18T08:34:54.468Z,18.91
2023-05-18T08:37:22.264Z,18.91
2023-05-18T08:39:49.791Z,17.84
2023-05-18T08:42:24.491Z,17.44
2023-05-18T08:45:36.191Z,19.50
2023-05-18T08:48:04.297Z,19.57
2023-05-18T08:50:33.176Z,20.62
2023-05-18T08:53:06.780Z,20.95
2023-05-18T08:55:37.035Z,18.97
2023-05-18T08:58:07.570Z,18.32
2023-05-18T09:00:36.172Z,17.00
2023-05-18T09:03:05.637Z,15.71
2023-05-18T09:05:33.697Z,15.12
2023-05-18T09:08:01.686Z,17.35
2023-05-18T09:10:29.755Z,20.50
2023-05-18T09:12:58.003Z,19.64
2023-05-18T09:15:26.310Z,19.93
2023-05-18T09:17:53.869Z,20.43
2023-05-18T09:20:22.182Z,19.78
2023-05-18T09:22:51.597Z,18.25
2023-05-18T09:25:19.453Z,18.46
2023-05-18T09:27:48.448Z,19.21
2023-05-18T09:30:16.196Z,18.56
2023-05-18T09:32:47.392Z,18.46
2023-05-18T09:35:15.767Z,18.15
2023-05-18T09:37:43.551Z,17.50
2023-05-18T09:40:11.399Z,17.35
2023-05-18T09:42:43.963Z,17.55
2023-05-18T09:45:26.862Z,18.39
2023-05-18T09:47:54.634Z,18.52
2023-05-18T09:50:23.588Z,18.49
2023-05-18T09:52:51.227Z,18.76
2023-05-18T09:55:20.303Z,17.26
2023-05-18T09:57:50.143Z,17.13
2023-05-18T10:00:20.777Z,22.11
2023-05-18T10:02:52.545Z,21.04
2023-05-18T10:05:21.373Z,23.77
2023-05-18T10:07:48.763Z,23.82
2023-05-18T10:10:21.203Z,23.32
2023-05-18T10:12:51.038Z,23.76
2023-05-18T10:15:21.199Z,23.03
2023-05-18T10:17:51.224Z,21.84
2023-05-18T10:20:20.514Z,21.40
2023-05-18T10:22:49.161Z,23.49
2023-05-18T10:25:20.125Z,23.36
2023-05-18T10:27:49.976Z,25.06
2023-05-18T10:30:20.358Z,25.19
2023-05-18T10:32:48.526Z,25.14
2023-05-18T10:35:17.106Z,26.29
2023-05-18T10:37:50.301Z,26.38
2023-05-18T10:40:19.886Z,25.44
2023-05-18T10:42:49.112Z,23.78
2023-05-18T10:45:16.848Z,25.98
2023-05-18T10:47:44.716Z,26.93
2023-05-18T10:50:14.157Z,24.77
2023-05-18T10:52:41.817Z,25.70
2023-05-18T10:55:09.644Z,25.58
2023-05-18T10:57:43.652Z,27.12
2023-05-18T11:00:11.889Z,25.30
2023-05-18T11:02:42.714Z,26.19
2023-05-18T11:05:11.223Z,27.48
2023-05-18T11:07:39.045Z,28.49
2023-05-18T11:10:11.605Z,30.24
2023-05-18T11:12:40.631Z,30.50
2023-05-18T11:15:08.670Z,31.31
2023-05-18T11:17:36.105Z,31.97
2023-05-18T11:20:09.652Z,34.53
2023-05-18T11:22:51.481Z,33.52
2023-05-18T11:25:28.356Z,33.39
2023-05-18T11:28:02.214Z,35.90
2023-05-18T11:30:33.916Z,34.74
2023-05-18T11:33:32.960Z,35.06
2023-05-18T11:36:11.654Z,35.26
2023-05-18T11:39:02.410Z,32.57
2023-05-18T11:41:35.860Z,33.46
2023-05-18T11:44:15.257Z,32.30
2023-05-18T11:47:10.979Z,34.78
2023-05-18T11:49:46.701Z,34.16
2023-05-18T11:52:22.386Z,34.92
2023-05-18T11:54:52.425Z,33.94
2023-05-18T11:57:24.625Z,36.55
2023-05-18T11:59:56.860Z,38.76
2023-05-18T12:02:26.959Z,34.42
2023-05-18T12:04:57.141Z,34.76
2023-05-18T12:07:28.434Z,36.31
2023-05-18T12:10:00.583Z,34.94
2023-05-18T12:12:28.471Z,39.85
2023-05-18T12:15:01.389Z,38.75
2023-05-18T12:17:41.949Z,40.68
2023-05-18T12:20:11.992Z,42.40
2023-05-18T12:22:41.407Z,39.96
2023-05-18T12:25:09.641Z,40.16
2023-05-18T12:27:41.474Z,39.94
2023-05-18T12:30:16.368Z,41.90
2023-05-18T12:32:57.693Z,39.93
2023-05-18T12:35:30.284Z,39.07
2023-05-18T12:38:02.962Z,40.69
2023-05-18T12:40:44.766Z,40.83
2023-05-18T12:43:13.246Z,41.52
2023-05-18T12:45:41.234Z,42.97
2023-05-18T12:48:11.179Z,41.43
2023-05-18T12:50:50.945Z,40.89
2023-05-18T12:53:18.958Z,42.84
2023-05-18T12:55:46.198Z,43.42
2023-05-18T12:58:17.694Z,42.54
2023-05-18T13:00:47.196Z,43.69
2023-05-18T13:03:17.341Z,42.23
2023-05-18T13:05:46.387Z,44.36
2023-05-18T13:08:19.995Z,44.42
2023-05-18T13:10:50.999Z,44.51
2023-05-18T13:13:23.033Z,45.44
2023-05-18T13:15:51.354Z,46.72
2023-05-18T13:18:18.867Z,47.18
2023-05-18T13:20:51.842Z,46.85
2023-05-18T13:23:21.828Z,47.50
2023-05-18T13:25:49.811Z,47.08
2023-05-18T13:28:19.279Z,47.06
2023-05-18T13:30:48.748Z,47.46
2023-05-18T13:33:18.138Z,48.87
2023-05-18T13:35:45.881Z,49.05
2023-05-18T13:38:14.510Z,49.25
2023-05-18T13:40:42.954Z,50.34
2023-05-18T13:43:12.777Z,49.75
2023-05-18T13:45:42.070Z,50.70
2023-05-18T13:48:10.835Z,51.14
2023-05-18T13:50:39.280Z,49.89
2023-05-18T13:53:07.169Z,50.84
2023-05-18T13:55:35.195Z,49.90
2023-05-18T13:58:02.822Z,49.62
2023-05-18T14:00:33.569Z,48.45
2023-05-18T14:03:01.692Z,49.32
2023-05-18T14:05:29.182Z,50.34
2023-05-18T14:07:56.951Z,50.38
2023-05-18T14:10:24.168Z,50.44
2023-05-18T14:12:51.730Z,49.99
2023-05-18T14:15:18.886Z,52.04
2023-05-18T14:17:46.375Z,52.08
2023-05-18T14:20:13.757Z,52.37
2023-05-18T14:22:41.545Z,50.71
2023-05-18T14:25:09.089Z,51.00
2023-05-18T14:27:36.798Z,52.24
2023-05-18T14:30:06.264Z,54.15
2023-05-18T14:32:33.960Z,52.03
2023-05-18T14:35:01.154Z,55.14
2023-05-18T14:37:28.820Z,55.74
2023-05-18T14:39:56.209Z,53.88
2023-05-18T14:42:23.736Z,50.41
2023-05-18T14:44:51.095Z,52.92
2023-05-18T14:47:18.534Z,50.55
2023-05-18T14:49:46.473Z,48.31
2023-05-18T14:52:14.444Z,51.49
2023-05-18T14:54:42.424Z,49.32
2023-05-18T14:57:10.006Z,49.95
2023-05-18T14:59:37.212Z,48.93
2023-05-18T15:02:05.026Z,49.38
2023-05-18T15:04:32.398Z,47.66
2023-05-18T15:06:59.942Z,47.88
2023-05-18T15:09:27.208Z,46.32
2023-05-18T15:11:54.749Z,46.61
2023-05-18T15:14:22.029Z,47.79
2023-05-18T15:16:49.552Z,47.29
2023-05-18T15:19:16.763Z,47.72
2023-05-18T15:21:45.049Z,47.07
2023-05-18T15:24:12.339Z,45.87
2023-05-18T15:26:40.077Z,46.21
2023-05-18T15:29:07.224Z,45.27
2023-05-18T15:31:36.979Z,45.51
2023-05-18T15:34:04.238Z,46.35
2023-05-18T15:36:32.401Z,45.54
2023-05-18T15:39:00.086Z,46.08
2023-05-18T15:41:33.056Z,48.00
2023-05-18T15:44:01.920Z,50.31
2023-05-18T15:46:32.112Z,49.86
2023-05-18T15:48:59.421Z,48.24
2023-05-18T15:51:26.930Z,48.57
2023-05-18T15:53:54.160Z,49.35
2023-05-18T15:56:22.081Z,48.58
2023-05-18T15:58:49.391Z,48.00
2023-05-18T16:01:16.890Z,46.59
2023-05-18T16:03:44.322Z,46.49
2023-05-18T16:06:12.152Z,47.25
2023-05-18T16:08:39.341Z,48.93
2023-05-18T16:11:07.215Z,49.66
2023-05-18T16:13:34.458Z,50.64
2023-05-18T16:16:03.698Z,50.25
2023-05-18T16:18:31.022Z,49.45
2023-05-18T16:20:58.556Z,47.76
2023-05-18T16:23:25.913Z,47.73
2023-05-18T16:25:53.457Z,48.19
2023-05-18T16:28:20.664Z,49.82
2023-05-18T16:30:48.230Z,50.39
2023-05-18T16:33:16.928Z,49.59
2023-05-18T16:35:44.400Z,48.73
2023-05-18T16:38:13.313Z,49.20
2023-05-18T16:40:40.821Z,48.35
2023-05-18T16:43:08.033Z,50.53
2023-05-18T16:45:35.598Z,52.82
2023-05-18T16:48:03.887Z,53.58
2023-05-18T16:50:31.827Z,53.14
2023-05-18T16:52:59.308Z,52.08
2023-05-18T16:55:27.158Z,52.57
2023-05-18T16:57:54.438Z,54.35
2023-05-18T17:00:22.196Z,55.28
2023-05-18T17:02:49.545Z,56.30
2023-05-18T17:05:21.514Z,55.88
2023-05-18T17:07:52.499Z,57.85
2023-05-18T17:10:20.035Z,56.70
2023-05-18T17:12:47.300Z,57.79
2023-05-18T17:15:15.050Z,59.33
2023-05-18T17:17:43.946Z,56.81
2023-05-18T17:20:11.915Z,59.22
2023-05-18T17:22:39.256Z,60.82
2023-05-18T17:25:08.512Z,60.90
2023-05-18T17:27:35.803Z,56.93
2023-05-18T17:30:03.487Z,58.07
2023-05-18T17:32:30.869Z,58.31
2023-05-18T17:34:58.501Z,59.29
2023-05-18T17:37:26.031Z,58.09
2023-05-18T17:39:53.840Z,60.37
2023-05-18T17:42:21.123Z,61.48
2023-05-18T17:44:48.644Z,60.31
2023-05-18T17:47:17.512Z,58.88
2023-05-18T17:49:45.082Z,60.64
2023-05-18T17:52:12.589Z,60.94
2023-05-18T17:54:40.139Z,61.39
2023-05-18T17:57:07.372Z,62.36
2023-05-18T17:59:37.125Z,62.56
2023-05-18T18:02:05.362Z,61.45
2023-05-18T18:04:32.967Z,61.90
2023-05-18T18:07:01.843Z,63.93
2023-05-18T18:09:29.466Z,63.80
2023-05-18T18:11:58.090Z,63.40
2023-05-18T18:14:25.799Z,63.93
2023-05-18T18:16:53.212Z,65.27
2023-05-18T18:19:20.949Z,65.40
2023-05-18T18:21:48.300Z,66.55
2023-05-18T18:24:15.996Z,68.60
2023-05-18T18:26:43.279Z,67.50
2023-05-18T18:29:10.906Z,68.43
2023-05-18T18:31:38.280Z,68.38
2023-05-18T18:34:05.954Z,68.70
2023-05-18T18:36:33.722Z,68.84
2023-05-18T18:39:01.388Z,70.17
2023-05-18T18:41:28.949Z,70.31
2023-05-18T18:43:57.324Z,71.50
2023-05-18T18:46:24.697Z,71.35
2023-05-18T18:48:52.317Z,71.85
2023-05-18T18:51:19.644Z,72.53
2023-05-18T18:53:47.229Z,73.84
2023-05-18T18:56:14.560Z,75.71
2023-05-18T18:58:42.147Z,76.04
2023-05-18T19:01:09.497Z,76.73
2023-05-18T19:03:37.171Z,76.62
2023-05-18T19:06:04.654Z,76.30
2023-05-18T19:08:32.298Z,77.30
2023-05-18T19:10:59.979Z,77.53
2023-05-18T19:13:27.591Z,77.25
2023-05-18T19:15:54.926Z,77.53
2023-05-18T19:18:22.590Z,79.62
2023-05-18T19:20:50.050Z,80.07
2023-05-18T19:23:17.689Z,80.45
2023-05-18T19:25:45.182Z,81.79
2023-05-18T19:28:12.737Z,82.23
2023-05-18T19:30:40.084Z,81.66
2023-05-18T19:33:07.744Z,81.83
2023-05-18T19:35:35.240Z,81.99
2023-05-18T19:38:02.790Z,81.93
2023-05-18T19:40:30.162Z,83.42
2023-05-18T19:42:59.808Z,83.48
2023-05-18T19:45:27.476Z,83.46
2023-05-18T19:47:55.618Z,82.79
2023-05-18T19:50:22.946Z,83.12
2023-05-18T19:52:50.723Z,83.71
2023-05-18T19:55:18.346Z,84.33
2023-05-18T19:57:45.931Z,85.92
2023-05-18T20:00:13.892Z,85.37
2023-05-18T20:02:41.520Z,86.31
2023-05-18T20:05:12.735Z,86.31
2023-05-18T20:07:41.133Z,86.79
2023-05-18T20:10:08.467Z,88.22
2023-05-18T20:12:36.080Z,89.44
2023-05-18T20:15:04.249Z,90.39
2023-05-18T20:17:31.965Z,90.92
2023-05-18T20:20:00.156Z,90.76
2023-05-18T20:22:28.130Z,91.02
2023-05-18T20:24:55.570Z,89.75
2023-05-18T20:27:23.168Z,88.91
2023-05-18T20:29:50.407Z,87.85
2023-05-18T20:32:17.952Z,89.40
2023-05-18T20:34:45.445Z,87.44
2023-05-18T20:37:14.235Z,88.79
2023-05-18T20:39:42.790Z,88.37
2023-05-18T20:42:12.922Z,88.98
2023-05-18T20:44:40.292Z,90.08
2023-05-18T20:47:08.670Z,90.13
2023-05-18T20:49:35.968Z,91.32
2023-05-18T20:52:03.635Z,91.75
2023-05-18T20:54:31.047Z,92.16
2023-05-18T20:56:58.680Z,92.64
2023-05-18T20:59:26.404Z,92.93
2023-05-18T21:01:54.243Z,93.58
2023-05-18T21:04:21.949Z,92.37
2023-05-18T21:06:49.659Z,93.44
2023-05-18T21:09:17.778Z,89.59
2023-05-18T21:11:45.383Z,86.50
2023-05-18T21:14:12.664Z,87.30
2023-05-18T21:16:40.603Z,88.87
2023-05-18T21:19:08.106Z,89.55
2023-05-18T21:21:36.023Z,91.53
2023-05-18T21:24:03.473Z,92.11
2023-05-18T21:26:31.109Z,90.95
2023-05-18T21:28:58.425Z,90.44
2023-05-18T21:31:26.364Z,90.89
2023-05-18T21:33:53.710Z,91.72
2023-05-18T21:36:34.454Z,91.37
2023-05-18T21:39:05.892Z,91.21
2023-05-18T21:41:35.393Z,88.88
2023-05-18T21:44:03.374Z,85.41
2023-05-18T21:46:31.262Z,86.36
2023-05-18T21:48:58.710Z,87.17
2023-05-18T21:51:26.393Z,84.34
2023-05-18T21:53:53.623Z,87.05
2023-05-18T21:56:21.577Z,85.57
2023-05-18T21:58:48.805Z,85.54
2023-05-18T22:01:19.786Z,86.72
2023-05-18T22:03:48.277Z,87.48
2023-05-18T22:06:16.636Z,88.79
2023-05-18T22:08:44.483Z,90.19
2023-05-18T22:11:12.872Z,91.56
2023-05-18T22:13:40.699Z,92.49
2023-05-18T22:16:08.401Z,93.73
2023-05-18T22:18:35.673Z,93.87
2023-05-18T22:21:03.218Z,93.96
2023-05-18T22:23:30.567Z,93.31
2023-05-18T22:25:58.211Z,93.70
2023-05-18T22:28:25.476Z,92.91
2023-05-18T22:30:53.159Z,93.35
2023-05-18T22:33:21.395Z,93.57
2023-05-18T22:35:49.610Z,92.60
2023-05-18T22:38:17.944Z,92.02
2023-05-18T22:40:45.684Z,91.17
2023-05-18T22:43:13.102Z,90.95
2023-05-18T22:45:40.967Z,89.78
2023-05-18T22:48:08.359Z,89.17
2023-05-18T22:50:36.025Z,89.43
2023-05-18T22:53:04.888Z,89.59
2023-05-18T22:55:32.888Z,89.98
2023-05-18T22:58:00.133Z,88.88
2023-05-18T23:00:27.661Z,88.60
2023-05-18T23:02:55.143Z,89.24
2023-05-18T23:05:22.920Z,89.37
2023-05-18T23:07:50.258Z,90.35
2023-05-18T23:10:18.616Z,90.19
2023-05-18T23:12:46.340Z,89.95
2023-05-18T23:15:14.073Z,91.28
2023-05-18T23:17:46.297Z,91.06
2023-05-18T23:20:13.848Z,91.42
2023-05-18T23:22:41.146Z,91.79
2023-05-18T23:25:10.057Z,92.35
2023-05-18T23:27:37.609Z,93.73
2023-05-18T23:30:05.761Z,94.21
2023-05-18T23:32:33.533Z,95.66
2023-05-18T23:35:01.487Z,97.41
2023-05-18T23:37:31.577Z,98.45
2023-05-18T23:40:02.827Z,97.87
2023-05-18T23:42:31.571Z,98.56
2023-05-18T23:44:59.542Z,98.89
2023-05-18T23:47:27.121Z,98.62
2023-05-18T23:49:55.049Z,98.22
2023-05-18T23:52:25.148Z,96.46
2023-05-18T23:54:55.732Z,95.84
2023-05-18T23:57:24.079Z,95.51
2023-05-18T23:59:51.885Z,96.74
